Turman, Indiana
Current Conditions -  °F | °C
As of 8:55 PM on Monday 20 Oct 2014 (Local Time) from KRSV Reporting Station
Clear Clear  
Wind Chill: 59°   Ceiling: Unl
Heat Index: 59°   Visibility: 10mi
Dew Point: 47°   Wind: 6mph
Humidity: 63%   Direction: 300°WNW
Pressure: 29.96"   Gusts: NA
Location:  39.1044°N, 87.4347°W
Report Text: KRSV 210055Z AUTO 30005KT 10SM CLR 15/08 A2996 RMK AO2 T01510081
Loading
Personal Weather Stations






























Interactive Weather Map
Tropical Storm Tracking
New forecast layout! Learn more

10-Day Weather Forecast

Advertisements
Track Severe Weather on mobile